sensor_id;sensor_type;location;lat;lon;timestamp;temperature;humidity
52765;DHT22;38650;44.536;18.664;2023-02-28T07:22:17;3.60;99.90
52765;DHT22;38650;44.536;18.664;2023-02-28T07:24:43;3.70;99.90
52765;DHT22;38650;44.536;18.664;2023-02-28T07:27:09;4.00;99.90
52765;DHT22;38650;44.536;18.664;2023-02-28T07:29:35;4.30;99.90
52765;DHT22;38650;44.536;18.664;2023-02-28T07:32:00;4.40;99.90
52765;DHT22;38650;44.536;18.664;2023-02-28T07:34:26;4.70;99.90
52765;DHT22;38650;44.536;18.664;2023-02-28T07:36:55;4.90;99.90
52765;DHT22;38650;44.536;18.664;2023-02-28T07:39:21;5.10;99.90
52765;DHT22;38650;44.536;18.664;2023-02-28T07:41:47;5.20;99.90
52765;DHT22;38650;44.536;18.664;2023-02-28T07:44:13;5.40;99.90
52765;DHT22;38650;44.536;18.664;2023-02-28T07:46:39;5.60;99.90
52765;DHT22;38650;44.536;18.664;2023-02-28T07:49:05;5.70;99.90
52765;DHT22;38650;44.536;18.664;2023-02-28T07:51:32;5.80;99.90
52765;DHT22;38650;44.536;18.664;2023-02-28T07:53:59;6.00;99.90
52765;DHT22;38650;44.536;18.664;2023-02-28T07:56:34;6.00;99.90
52765;DHT22;38650;44.536;18.664;2023-02-28T07:59:00;6.00;99.90
52765;DHT22;38650;44.536;18.664;2023-02-28T08:01:34;6.00;99.90
52765;DHT22;38650;44.536;18.664;2023-02-28T08:04:18;6.10;99.90
52765;DHT22;38650;44.536;18.664;2023-02-28T08:06:49;6.30;99.90
52765;DHT22;38650;44.536;18.664;2023-02-28T08:09:22;6.30;99.90
52765;DHT22;38650;44.536;18.664;2023-02-28T08:11:48;6.10;99.90
52765;DHT22;38650;44.536;18.664;2023-02-28T08:14:15;6.00;99.90
52765;DHT22;38650;44.536;18.664;2023-02-28T08:16:41;6.00;99.90
52765;DHT22;38650;44.536;18.664;2023-02-28T08:19:08;6.30;99.90
52765;DHT22;38650;44.536;18.664;2023-02-28T08:21:34;6.30;99.90
52765;DHT22;38650;44.536;18.664;2023-02-28T08:24:02;6.40;99.90
52765;DHT22;38650;44.536;18.664;2023-02-28T08:26:29;6.50;99.90
52765;DHT22;38650;44.536;18.664;2023-02-28T08:28:55;6.70;99.90
52765;DHT22;38650;44.536;18.664;2023-02-28T08:31:21;6.60;99.90
52765;DHT22;38650;44.536;18.664;2023-02-28T08:33:48;6.60;99.90
52765;DHT22;38650;44.536;18.664;2023-02-28T08:36:22;6.70;99.90
52765;DHT22;38650;44.536;18.664;2023-02-28T08:38:49;6.70;99.90
52765;DHT22;38650;44.536;18.664;2023-02-28T08:41:14;6.80;99.90
52765;DHT22;38650;44.536;18.664;2023-02-28T08:43:41;7.00;99.90
52765;DHT22;38650;44.536;18.664;2023-02-28T08:46:07;7.10;99.90
52765;DHT22;38650;44.536;18.664;2023-02-28T08:48:35;7.10;99.80
52765;DHT22;38650;44.536;18.664;2023-02-28T08:51:14;7.10;99.70
52765;DHT22;38650;44.536;18.664;2023-02-28T08:53:44;6.90;98.90
52765;DHT22;38650;44.536;18.664;2023-02-28T08:56:13;6.70;99.80
52765;DHT22;38650;44.536;18.664;2023-02-28T08:58:40;6.60;99.50
52765;DHT22;38650;44.536;18.664;2023-02-28T09:01:14;6.70;99.70
52765;DHT22;38650;44.536;18.664;2023-02-28T09:03:41;6.60;99.70
52765;DHT22;38650;44.536;18.664;2023-02-28T09:06:08;6.70;99.70
52765;DHT22;38650;44.536;18.664;2023-02-28T09:08:34;6.80;99.40
52765;DHT22;38650;44.536;18.664;2023-02-28T09:11:00;6.60;99.00
52765;DHT22;38650;44.536;18.664;2023-02-28T09:13:27;6.70;99.80
52765;DHT22;38650;44.536;18.664;2023-02-28T09:15:53;6.80;99.90
52765;DHT22;38650;44.536;18.664;2023-02-28T09:18:23;6.80;99.90
52765;DHT22;38650;44.536;18.664;2023-02-28T09:20:50;6.90;98.40
52765;DHT22;38650;44.536;18.664;2023-02-28T09:23:20;6.90;98.80
52765;DHT22;38650;44.536;18.664;2023-02-28T09:25:50;6.90;98.50
52765;DHT22;38650;44.536;18.664;2023-02-28T09:28:17;7.20;98.70
52765;DHT22;38650;44.536;18.664;2023-02-28T09:30:47;7.40;98.20
52765;DHT22;38650;44.536;18.664;2023-02-28T09:33:13;7.30;96.70
52765;DHT22;38650;44.536;18.664;2023-02-28T09:35:39;7.10;96.60
52765;DHT22;38650;44.536;18.664;2023-02-28T09:38:12;7.10;96.90
52765;DHT22;38650;44.536;18.664;2023-02-28T09:40:49;7.30;96.80
52765;DHT22;38650;44.536;18.664;2023-02-28T09:43:18;7.50;96.90
52765;DHT22;38650;44.536;18.664;2023-02-28T09:45:54;7.50;96.70
52765;DHT22;38650;44.536;18.664;2023-02-28T09:48:29;7.30;97.10
52765;DHT22;38650;44.536;18.664;2023-02-28T09:51:05;7.00;97.00
52765;DHT22;38650;44.536;18.664;2023-02-28T09:53:37;7.10;97.70
52765;DHT22;38650;44.536;18.664;2023-02-28T09:56:10;7.30;97.20
52765;DHT22;38650;44.536;18.664;2023-02-28T10:04:59;7.00;97.10
52765;DHT22;38650;44.536;18.664;2023-02-28T10:11:06;7.30;96.30
52765;DHT22;38650;44.536;18.664;2023-02-28T10:13:58;7.30;95.10
52765;DHT22;38650;44.536;18.664;2023-02-28T10:17:25;7.40;95.60
52765;DHT22;38650;44.536;18.664;2023-02-28T10:22:40;7.50;96.00
52765;DHT22;38650;44.536;18.664;2023-02-28T10:25:25;7.70;95.40
52765;DHT22;38650;44.536;18.664;2023-02-28T10:30:33;7.70;94.40
52765;DHT22;38650;44.536;18.664;2023-02-28T10:33:05;7.80;94.20
52765;DHT22;38650;44.536;18.664;2023-02-28T10:35:35;7.80;95.00
52765;DHT22;38650;44.536;18.664;2023-02-28T10:38:12;7.90;94.40
52765;DHT22;38650;44.536;18.664;2023-02-28T10:40:49;8.00;94.80
52765;DHT22;38650;44.536;18.664;2023-02-28T10:48:45;8.60;92.80
52765;DHT22;38650;44.536;18.664;2023-02-28T10:51:16;8.70;92.50
52765;DHT22;38650;44.536;18.664;2023-02-28T10:58:55;8.40;91.80
52765;DHT22;38650;44.536;18.664;2023-02-28T11:01:38;8.20;92.70
52765;DHT22;38650;44.536;18.664;2023-02-28T11:07:18;7.90;93.00
52765;DHT22;38650;44.536;18.664;2023-02-28T11:09:47;7.90;94.00
52765;DHT22;38650;44.536;18.664;2023-02-28T11:12:24;8.00;93.80
52765;DHT22;38650;44.536;18.664;2023-02-28T11:14:54;8.00;93.40
52765;DHT22;38650;44.536;18.664;2023-02-28T11:17:31;8.00;93.50
52765;DHT22;38650;44.536;18.664;2023-02-28T11:20:04;8.00;93.60
52765;DHT22;38650;44.536;18.664;2023-02-28T11:22:36;7.90;93.20
52765;DHT22;38650;44.536;18.664;2023-02-28T11:25:10;7.90;93.30
52765;DHT22;38650;44.536;18.664;2023-02-28T11:27:48;7.80;93.40
52765;DHT22;38650;44.536;18.664;2023-02-28T11:32:54;7.80;93.80
52765;DHT22;38650;44.536;18.664;2023-02-28T11:35:53;7.70;93.60
52765;DHT22;38650;44.536;18.664;2023-02-28T11:38:12;7.70;93.60
52765;DHT22;38650;44.536;18.664;2023-02-28T11:43:46;7.80;94.70
52765;DHT22;38650;44.536;18.664;2023-02-28T12:02:50;8.20;94.40
52765;DHT22;38650;44.536;18.664;2023-02-28T12:08:14;8.30;93.90
52765;DHT22;38650;44.536;18.664;2023-02-28T12:13:29;8.20;94.30
52765;DHT22;38650;44.536;18.664;2023-02-28T12:22:19;8.30;94.00
52765;DHT22;38650;44.536;18.664;2023-02-28T12:27:37;7.90;95.30
52765;DHT22;38650;44.536;18.664;2023-02-28T12:30:28;7.80;94.80
52765;DHT22;38650;44.536;18.664;2023-02-28T12:33:07;7.80;95.50
52765;DHT22;38650;44.536;18.664;2023-02-28T12:35:41;7.70;94.80
52765;DHT22;38650;44.536;18.664;2023-02-28T12:38:17;7.60;95.30
52765;DHT22;38650;44.536;18.664;2023-02-28T12:40:50;7.40;96.10
52765;DHT22;38650;44.536;18.664;2023-02-28T12:43:17;7.40;96.10
52765;DHT22;38650;44.536;18.664;2023-02-28T12:46:41;7.50;96.30
52765;DHT22;38650;44.536;18.664;2023-02-28T12:51:16;7.40;96.50
52765;DHT22;38650;44.536;18.664;2023-02-28T12:59:42;7.40;96.10
52765;DHT22;38650;44.536;18.664;2023-02-28T13:10:46;7.20;96.70
52765;DHT22;38650;44.536;18.664;2023-02-28T13:13:18;7.10;97.30
52765;DHT22;38650;44.536;18.664;2023-02-28T13:21:09;7.30;97.10
52765;DHT22;38650;44.536;18.664;2023-02-28T13:34:41;7.30;96.50
52765;DHT22;38650;44.536;18.664;2023-02-28T13:42:38;7.20;97.00
52765;DHT22;38650;44.536;18.664;2023-02-28T13:47:45;7.10;97.30
52765;DHT22;38650;44.536;18.664;2023-02-28T14:00:53;7.10;97.50
52765;DHT22;38650;44.536;18.664;2023-02-28T14:04:11;7.10;97.50
52765;DHT22;38650;44.536;18.664;2023-02-28T14:06:15;7.10;97.50
52765;DHT22;38650;44.536;18.664;2023-02-28T14:11:45;7.00;98.10
52765;DHT22;38650;44.536;18.664;2023-02-28T14:17:17;6.90;97.90
52765;DHT22;38650;44.536;18.664;2023-02-28T14:19:46;6.90;97.40
52765;DHT22;38650;44.536;18.664;2023-02-28T14:34:48;6.70;98.20
52765;DHT22;38650;44.536;18.664;2023-02-28T14:37:22;6.60;98.70
52765;DHT22;38650;44.536;18.664;2023-02-28T14:39:49;6.60;99.20
52765;DHT22;38650;44.536;18.664;2023-02-28T14:42:34;6.60;99.40
52765;DHT22;38650;44.536;18.664;2023-02-28T14:45:02;6.60;99.30
52765;DHT22;38650;44.536;18.664;2023-02-28T14:47:31;6.60;99.00
52765;DHT22;38650;44.536;18.664;2023-02-28T14:49:59;6.60;98.90
52765;DHT22;38650;44.536;18.664;2023-02-28T14:52:30;6.40;98.80
52765;DHT22;38650;44.536;18.664;2023-02-28T14:55:14;6.50;98.90
52765;DHT22;38650;44.536;18.664;2023-02-28T14:58:02;6.50;98.80
52765;DHT22;38650;44.536;18.664;2023-02-28T15:00:37;6.40;99.10
52765;DHT22;38650;44.536;18.664;2023-02-28T15:05:56;6.30;99.90
52765;DHT22;38650;44.536;18.664;2023-02-28T15:08:22;6.30;99.90
52765;DHT22;38650;44.536;18.664;2023-02-28T15:13:20;6.20;99.90
52765;DHT22;38650;44.536;18.664;2023-02-28T15:15:56;6.20;99.90
52765;DHT22;38650;44.536;18.664;2023-02-28T15:20:56;6.20;99.90
52765;DHT22;38650;44.536;18.664;2023-02-28T15:23:23;6.20;99.90
52765;DHT22;38650;44.536;18.664;2023-02-28T15:25:50;6.20;99.90
52765;DHT22;38650;44.536;18.664;2023-02-28T15:28:19;6.10;99.90
52765;DHT22;38650;44.536;18.664;2023-02-28T15:31:02;5.70;99.90
52765;DHT22;38650;44.536;18.664;2023-02-28T15:33:33;5.50;99.90
52765;DHT22;38650;44.536;18.664;2023-02-28T15:36:10;5.50;99.90
52765;DHT22;38650;44.536;18.664;2023-02-28T15:38:37;5.40;99.90
52765;DHT22;38650;44.536;18.664;2023-02-28T15:41:03;5.30;99.90
52765;DHT22;38650;44.536;18.664;2023-02-28T15:43:37;5.40;99.90
52765;DHT22;38650;44.536;18.664;2023-02-28T15:46:10;5.50;99.90
52765;DHT22;38650;44.536;18.664;2023-02-28T15:48:53;5.50;99.90
52765;DHT22;38650;44.536;18.664;2023-02-28T15:51:27;5.40;99.90
52765;DHT22;38650;44.536;18.664;2023-02-28T15:53:58;5.20;99.90
52765;DHT22;38650;44.536;18.664;2023-02-28T15:56:27;5.20;99.90
52765;DHT22;38650;44.536;18.664;2023-02-28T15:59:05;5.20;99.90
52765;DHT22;38650;44.536;18.664;2023-02-28T16:01:34;5.10;99.90
52765;DHT22;38650;44.536;18.664;2023-02-28T16:04:03;5.10;99.90
52765;DHT22;38650;44.536;18.664;2023-02-28T16:06:40;5.00;99.90
52765;DHT22;38650;44.536;18.664;2023-02-28T16:09:14;5.00;99.90
52765;DHT22;38650;44.536;18.664;2023-02-28T16:11:49;4.90;99.90
52765;DHT22;38650;44.536;18.664;2023-02-28T16:14:18;4.80;99.90
52765;DHT22;38650;44.536;18.664;2023-02-28T16:16:46;4.70;99.90
52765;DHT22;38650;44.536;18.664;2023-02-28T16:19:13;4.90;99.90
52765;DHT22;38650;44.536;18.664;2023-02-28T16:21:39;4.80;99.90
52765;DHT22;38650;44.536;18.664;2023-02-28T16:24:05;4.80;99.90
52765;DHT22;38650;44.536;18.664;2023-02-28T16:26:31;4.70;99.90
52765;DHT22;38650;44.536;18.664;2023-02-28T16:29:01;4.70;99.90
52765;DHT22;38650;44.536;18.664;2023-02-28T16:31:28;4.70;99.90
52765;DHT22;38650;44.536;18.664;2023-02-28T16:33:53;4.70;99.90
52765;DHT22;38650;44.536;18.664;2023-02-28T16:36:24;4.70;99.90
52765;DHT22;38650;44.536;18.664;2023-02-28T16:38:54;4.60;99.90
52765;DHT22;38650;44.536;18.664;2023-02-28T16:41:22;4.70;99.90
52765;DHT22;38650;44.536;18.664;2023-02-28T16:43:51;4.70;99.90
52765;DHT22;38650;44.536;18.664;2023-02-28T16:46:17;4.70;99.90
52765;DHT22;38650;44.536;18.664;2023-02-28T16:48:47;4.70;99.90
52765;DHT22;38650;44.536;18.664;2023-02-28T16:51:16;4.70;99.90
52765;DHT22;38650;44.536;18.664;2023-02-28T16:53:44;4.60;99.90
52765;DHT22;38650;44.536;18.664;2023-02-28T16:56:21;4.60;99.90
52765;DHT22;38650;44.536;18.664;2023-02-28T16:58:48;4.70;99.90
52765;DHT22;38650;44.536;18.664;2023-02-28T17:01:14;4.90;99.90
52765;DHT22;38650;44.536;18.664;2023-02-28T17:03:40;5.00;99.90
52765;DHT22;38650;44.536;18.664;2023-02-28T17:06:44;5.10;99.90
52765;DHT22;38650;44.536;18.664;2023-02-28T17:09:03;5.20;99.90
52765;DHT22;38650;44.536;18.664;2023-02-28T17:11:28;5.30;99.90
52765;DHT22;38650;44.536;18.664;2023-02-28T17:13:54;5.30;99.90
52765;DHT22;38650;44.536;18.664;2023-02-28T17:16:28;5.30;99.90
52765;DHT22;38650;44.536;18.664;2023-02-28T17:18:57;5.30;99.90
52765;DHT22;38650;44.536;18.664;2023-02-28T17:21:23;5.40;99.90
